23:21
Airports
History
Links
Donate
Help keep this website running!
PayPal
Bitcoin
Information on this page is community maintained and may be outdated or inaccurate and is intended for reference only or PC simulator navigating!
Always use approved charts for navigating.
VYYY
YANGON INTLEdited 12-Sep-2012
YANGON INTL (VYYY)
Yangon, Yangon Region, Myanmar
(C)
Lat/Lng:16° 54' 26.25" N / 96° 7' 59.56" E
16.907292 / 96.13321
Elevation:109'ft 33mMSL
ID / ICAO:VYYY
Runways:1
Longest:(03-21) 3,427.9m 11,246ft Asphalt
Controlled:Yes
Distance To
Airport ID:
Airport Radio Frequencies
ATIS: 128.4
Ground: 121.9
Tower: 118.1
Approach: 119.7
Nearby VORs <50NM
Nearby NDBs
METARUpdated 04-29-17 23:00 GMT
Altimeter: 29.83
Visibility: 3.7 statute miles
Wind: 3 knots (280°)
Temp: 27°c 81°f
Humidity: 94.3%

METAR: VYYY 292300Z 28003KT 6000 FEW018 SCT110 27/26 Q1010

(Powered by phpweather)
Runway 03 / 21
Dimensions:3427.9 x 61m 11246' x 200'ft
Surface:Asphalt
Edge Lights:High intensity
Runway 03 [A]Runway 21 [B]
Heading:033°TH 213°TH
Lat:
Lng:
16° 53' 52.53"N
96° 7' 36.77"E
16° 55' 25.52"N
96° 8' 40.13"E
Edited 09-12-122
Google Map
Nearby Airports
(C) PATHEIN 89.7 NM
VYPN W 265°
(C) HPA AN 101.9 NM
VYPA E 90°
(C) MAWLAMYINE 106.0 NM
VYMM ESE 107°
(U) PYAY 144.2 NM
VYPY NNW 336°
(C) Mae Sariang (STOL) 147.6 NM
VTCS NE 53°
(C) TAUNGOO 147.8 NM
VYTO N
(C) Tak Mae Sot 160.2 NM
VTPM (WX) E 95°
VFR Chart
Flight Planning at SkyVector.com